KYIP/YIP METAR and TAF weather

Enter ICAO airport designator
Station Type Date Time Source
KYIP METAR 2021/06/22 23:53 UTC NOAA

KYIP 222353Z AUTO 07004KT 10SM CLR 18/09 A2999 RMK AO2 SLP152 T01780089 10206 20178 53005


Station Type Date Time Source
KYIP Decoded METAR 2021/06/22 23:53 UTC NOAA

WILLOW RUN AIRPORT, MI, United States (KYIP) 42-14N 083-32W 215M
Jun 22, 2021 - 07:53 PM EDT / 2021.06.22 2353 UTC
Wind: from the ENE (070 degrees) at 5 MPH (4 KT):0
Visibility: 10 mile(s):0
Sky conditions: clear
Temperature: 64.0 F (17.8 C)
Dew Point: 48.0 F (8.9 C)
Relative Humidity: 55%
Pressure (altimeter): 29.99 in. Hg (1015 hPa)
Pressure tendency: 0.01 inches (0.5 hPa) higher than three hours ago
ob: KYIP 222353Z AUTO 07004KT 10SM CLR 18/09 A2999 RMK AO2 SLP152 T01780089 10206 20178 53005
cycle: 0

Station Type Date Time Source
KYIP TAF 2021/06/22 19:15 UTC NOAA

TAF
AMD KYIP 221913Z 2219/2318 23011KT P6SM BKN060
TEMPO 2221/2223 6SM -SHRA OVC045
FM230200 23006KT P6SM FEW080
FM231200 22010KT P6SM BKN060
FM231700 21010KT P6SM OVC050

Example: see airport list